Date,TemperatureHighF,TemperatureAvgF,TemperatureLowF,DewpointHighF,DewpointAvgF,DewpointLowF,HumidityHigh,HumidityAvg,HumidityLow,PressureMaxIn,PressureMinIn,WindSpeedMaxMPH,WindSpeedAvgMPH,GustSpeedMaxMPH,PrecipitationSumIn
2013-2-1,64.6,52.6,42.4,31.6,28.2,23.3,52,40,24,29.92,29.92,2,0,2,0.00
2013-2-2,63.7,54.9,48.9,41.7,27.8,21.7,76,36,22,29.92,29.92,17,0,17,0.01
2013-2-3,62.2,51.6,43.5,44.0,41.2,36.0,87,69,46,29.92,29.92,12,1,12,0.02
2013-2-4,69.1,50.6,40.3,43.6,35.2,25.1,87,61,20,29.92,29.92,11,1,11,0.00
2013-2-5,67.3,50.4,40.8,45.3,34.8,25.5,99,59,22,29.92,29.92,11,2,11,0.00
2013-2-6,62.2,45.2,35.2,42.7,36.0,29.3,99,71,47,29.92,29.92,11,2,11,0.00
2013-2-7,63.3,47.0,36.1,43.6,31.9,17.9,99,62,19,29.92,29.92,21,3,21,0.00
2013-2-8,36.3,32.4,29.5,35.6,32.0,29.2,99,99,95,29.92,29.92,28,5,28,0.07
2013-2-9,38.7,31.9,29.1,38.2,31.2,28.9,99,97,85,29.92,29.92,17,2,17,0.20
2013-2-10,39.4,33.2,30.4,33.2,31.4,28.7,99,93,72,29.92,29.92,14,2,14,0.22
2013-2-11,50.9,34.1,24.8,35.1,22.2,3.7,99,67,21,29.92,29.92,12,0,12,0.17
2013-2-12,54.3,36.8,24.8,15.7,8.1,-0.1,51,31,18,29.92,29.92,10,0,10,0.00
2013-2-13,42.4,37.4,33.1,10.5,6.8,4.0,37,28,23,29.92,29.92,10,0,10,0.00
2013-2-14,59.5,49.7,37.6,22.3,20.8,18.1,50,33,22,29.92,29.92,9,3,9,0.00
2013-2-15,57.7,53.1,47.7,21.5,14.1,10.9,35,21,18,29.92,29.92,30,5,30,0.00
2013-2-16,63.1,52.6,42.6,19.4,14.3,6.6,36,22,17,29.92,29.92,19,0,19,0.00
2013-2-17,58.8,46.1,36.0,36.1,20.5,9.0,84,39,19,29.92,29.92,26,2,26,0.00
2013-2-18,63.1,45.9,36.0,40.9,28.0,16.1,99,56,17,29.92,29.92,11,1,11,0.00
2013-2-19,36.3,34.2,30.7,35.2,33.4,30.5,99,97,88,29.92,29.92,23,6,23,0.20
2013-2-20,37.4,31.4,28.6,32.7,30.0,27.2,99,95,80,29.92,29.92,14,0,14,0.11
2013-2-21,44.6,33.9,24.6,38.7,29.8,13.8,96,85,38,29.92,29.92,14,1,14,0.14
2013-2-22,58.3,39.7,27.0,29.6,19.0,8.5,74,47,21,29.92,29.92,10,0,10,0.01
2013-2-23,52.7,41.1,30.9,33.3,27.9,21.8,93,63,31,29.92,29.92,19,1,19,0.00
2013-2-24,48.7,39.5,33.1,28.7,9.7,-3.0,70,32,18,29.92,29.92,27,1,27,0.00
2013-2-25,60.3,42.3,29.3,19.0,9.8,-3.0,46,27,18,29.92,29.92,11,1,11,0.00
2013-2-26,54.5,44.9,32.2,13.4,9.3,-0.6,42,24,18,29.92,29.92,21,2,21,0.00
2013-2-27,54.3,45.7,38.8,12.2,8.6,4.5,29,22,18,29.92,29.92,21,1,21,0.00
2013-2-28,59.0,49.7,41.7,16.8,10.4,4.3,23,20,18,29.92,29.92,22,1,22,0.00